sensor_id;sensor_type;location;lat;lon;timestamp;temperature;humidity
6496;DHT22;3281;47.658;9.166;2023-04-16T00:00:36;8.20;1.00
6496;DHT22;3281;47.658;9.166;2023-04-16T00:03:03;8.10;1.00
6496;DHT22;3281;47.658;9.166;2023-04-16T00:05:29;8.20;1.00
6496;DHT22;3281;47.658;9.166;2023-04-16T00:07:56;8.20;1.00
6496;DHT22;3281;47.658;9.166;2023-04-16T00:10:24;8.10;1.00
6496;DHT22;3281;47.658;9.166;2023-04-16T00:12:51;8.20;1.00
6496;DHT22;3281;47.658;9.166;2023-04-16T00:15:17;8.20;1.00
6496;DHT22;3281;47.658;9.166;2023-04-16T00:17:44;8.10;1.00
6496;DHT22;3281;47.658;9.166;2023-04-16T00:20:11;8.20;1.00
6496;DHT22;3281;47.658;9.166;2023-04-16T00:22:37;8.20;1.00
6496;DHT22;3281;47.658;9.166;2023-04-16T00:25:05;8.20;1.00
6496;DHT22;3281;47.658;9.166;2023-04-16T00:27:33;8.30;1.00
6496;DHT22;3281;47.658;9.166;2023-04-16T00:30:00;8.20;1.00
6496;DHT22;3281;47.658;9.166;2023-04-16T00:32:26;8.20;1.00
6496;DHT22;3281;47.658;9.166;2023-04-16T00:34:53;8.20;1.00
6496;DHT22;3281;47.658;9.166;2023-04-16T00:37:20;8.20;1.00
6496;DHT22;3281;47.658;9.166;2023-04-16T00:39:46;8.20;1.00
6496;DHT22;3281;47.658;9.166;2023-04-16T00:42:13;8.10;1.00
6496;DHT22;3281;47.658;9.166;2023-04-16T00:44:41;8.10;1.00
6496;DHT22;3281;47.658;9.166;2023-04-16T00:47:08;8.00;1.00
6496;DHT22;3281;47.658;9.166;2023-04-16T00:49:35;8.10;1.00
6496;DHT22;3281;47.658;9.166;2023-04-16T00:52:02;8.00;1.00
6496;DHT22;3281;47.658;9.166;2023-04-16T00:54:29;8.00;1.00
6496;DHT22;3281;47.658;9.166;2023-04-16T00:56:57;7.90;1.00
6496;DHT22;3281;47.658;9.166;2023-04-16T00:59:23;7.80;1.00
6496;DHT22;3281;47.658;9.166;2023-04-16T01:01:52;7.80;1.00
6496;DHT22;3281;47.658;9.166;2023-04-16T01:04:18;7.80;1.00
6496;DHT22;3281;47.658;9.166;2023-04-16T01:06:45;7.80;1.00
6496;DHT22;3281;47.658;9.166;2023-04-16T01:09:12;7.90;1.00
6496;DHT22;3281;47.658;9.166;2023-04-16T01:11:39;7.80;1.00
6496;DHT22;3281;47.658;9.166;2023-04-16T01:14:05;7.80;1.00
6496;DHT22;3281;47.658;9.166;2023-04-16T01:16:32;7.80;1.00
6496;DHT22;3281;47.658;9.166;2023-04-16T01:19:00;7.90;1.00
6496;DHT22;3281;47.658;9.166;2023-04-16T01:21:28;7.90;1.00
6496;DHT22;3281;47.658;9.166;2023-04-16T01:23:55;7.90;1.00
6496;DHT22;3281;47.658;9.166;2023-04-16T01:26:22;7.90;1.00
6496;DHT22;3281;47.658;9.166;2023-04-16T01:28:49;7.90;1.00
6496;DHT22;3281;47.658;9.166;2023-04-16T01:31:15;7.90;1.00
6496;DHT22;3281;47.658;9.166;2023-04-16T01:33:42;7.90;1.00
6496;DHT22;3281;47.658;9.166;2023-04-16T01:36:09;7.90;1.00
6496;DHT22;3281;47.658;9.166;2023-04-16T01:38:37;7.90;1.00
6496;DHT22;3281;47.658;9.166;2023-04-16T01:41:03;7.90;1.00
6496;DHT22;3281;47.658;9.166;2023-04-16T01:43:30;7.90;1.00
6496;DHT22;3281;47.658;9.166;2023-04-16T01:46:13;7.90;1.00
6496;DHT22;3281;47.658;9.166;2023-04-16T01:48:40;8.00;1.00
6496;DHT22;3281;47.658;9.166;2023-04-16T01:51:07;8.00;1.00
6496;DHT22;3281;47.658;9.166;2023-04-16T01:53:34;8.10;1.00
6496;DHT22;3281;47.658;9.166;2023-04-16T01:56:03;8.00;1.00
6496;DHT22;3281;47.658;9.166;2023-04-16T01:58:31;8.00;1.00
6496;DHT22;3281;47.658;9.166;2023-04-16T02:00:58;8.10;1.00
6496;DHT22;3281;47.658;9.166;2023-04-16T02:03:24;8.00;1.00
6496;DHT22;3281;47.658;9.166;2023-04-16T02:05:51;7.90;1.00
6496;DHT22;3281;47.658;9.166;2023-04-16T02:08:18;8.00;1.00
6496;DHT22;3281;47.658;9.166;2023-04-16T02:10:45;8.00;1.00
6496;DHT22;3281;47.658;9.166;2023-04-16T02:13:14;8.00;1.00
6496;DHT22;3281;47.658;9.166;2023-04-16T02:15:44;8.00;1.00
6496;DHT22;3281;47.658;9.166;2023-04-16T02:18:12;8.00;1.00
6496;DHT22;3281;47.658;9.166;2023-04-16T02:20:39;8.00;1.00
6496;DHT22;3281;47.658;9.166;2023-04-16T02:23:06;8.00;1.00
6496;DHT22;3281;47.658;9.166;2023-04-16T02:25:37;7.90;1.00
6496;DHT22;3281;47.658;9.166;2023-04-16T02:28:05;8.00;1.00
6496;DHT22;3281;47.658;9.166;2023-04-16T02:30:33;8.00;1.00
6496;DHT22;3281;47.658;9.166;2023-04-16T02:33:00;8.10;1.00
6496;DHT22;3281;47.658;9.166;2023-04-16T02:35:28;8.00;1.00
6496;DHT22;3281;47.658;9.166;2023-04-16T02:37:54;8.10;1.00
6496;DHT22;3281;47.658;9.166;2023-04-16T02:40:21;8.10;1.00
6496;DHT22;3281;47.658;9.166;2023-04-16T02:42:48;8.10;1.00
6496;DHT22;3281;47.658;9.166;2023-04-16T02:45:14;8.10;1.00
6496;DHT22;3281;47.658;9.166;2023-04-16T02:47:43;8.10;1.00
6496;DHT22;3281;47.658;9.166;2023-04-16T02:50:10;8.10;1.00
6496;DHT22;3281;47.658;9.166;2023-04-16T02:52:37;8.10;1.00
6496;DHT22;3281;47.658;9.166;2023-04-16T02:55:04;8.10;1.00
6496;DHT22;3281;47.658;9.166;2023-04-16T02:57:31;8.10;1.00
6496;DHT22;3281;47.658;9.166;2023-04-16T02:59:57;8.10;1.00
6496;DHT22;3281;47.658;9.166;2023-04-16T03:02:24;8.10;1.00
6496;DHT22;3281;47.658;9.166;2023-04-16T03:04:52;8.10;1.00
6496;DHT22;3281;47.658;9.166;2023-04-16T03:07:20;8.10;1.00
6496;DHT22;3281;47.658;9.166;2023-04-16T03:09:46;8.10;1.00
6496;DHT22;3281;47.658;9.166;2023-04-16T03:12:13;8.10;1.00
6496;DHT22;3281;47.658;9.166;2023-04-16T03:14:40;8.10;1.00
6496;DHT22;3281;47.658;9.166;2023-04-16T03:17:06;8.10;1.00
6496;DHT22;3281;47.658;9.166;2023-04-16T03:19:33;8.10;1.00
6496;DHT22;3281;47.658;9.166;2023-04-16T03:22:01;8.00;1.00
6496;DHT22;3281;47.658;9.166;2023-04-16T03:24:27;8.00;1.00
6496;DHT22;3281;47.658;9.166;2023-04-16T03:26:56;8.00;1.00
6496;DHT22;3281;47.658;9.166;2023-04-16T03:29:23;8.00;1.00
6496;DHT22;3281;47.658;9.166;2023-04-16T03:31:51;8.10;1.00
6496;DHT22;3281;47.658;9.166;2023-04-16T03:34:17;8.10;1.00
6496;DHT22;3281;47.658;9.166;2023-04-16T03:36:44;8.20;1.00
6496;DHT22;3281;47.658;9.166;2023-04-16T03:39:14;8.10;1.00
6496;DHT22;3281;47.658;9.166;2023-04-16T03:41:41;8.10;1.00
6496;DHT22;3281;47.658;9.166;2023-04-16T03:44:08;8.10;1.00
6496;DHT22;3281;47.658;9.166;2023-04-16T03:46:35;8.10;1.00
6496;DHT22;3281;47.658;9.166;2023-04-16T03:49:01;8.10;1.00
6496;DHT22;3281;47.658;9.166;2023-04-16T03:51:28;8.10;1.00
6496;DHT22;3281;47.658;9.166;2023-04-16T03:53:55;8.10;1.00
6496;DHT22;3281;47.658;9.166;2023-04-16T03:56:23;8.00;1.00
6496;DHT22;3281;47.658;9.166;2023-04-16T03:58:50;8.10;1.00
6496;DHT22;3281;47.658;9.166;2023-04-16T04:01:16;8.00;1.00
6496;DHT22;3281;47.658;9.166;2023-04-16T04:03:43;8.10;1.00
6496;DHT22;3281;47.658;9.166;2023-04-16T04:06:10;8.10;1.00
6496;DHT22;3281;47.658;9.166;2023-04-16T04:08:36;8.10;1.00
6496;DHT22;3281;47.658;9.166;2023-04-16T04:11:03;8.10;1.00
6496;DHT22;3281;47.658;9.166;2023-04-16T04:13:31;8.10;1.00
6496;DHT22;3281;47.658;9.166;2023-04-16T04:15:58;8.10;1.00
6496;DHT22;3281;47.658;9.166;2023-04-16T04:18:24;8.10;1.00
6496;DHT22;3281;47.658;9.166;2023-04-16T04:20:51;8.10;1.00
6496;DHT22;3281;47.658;9.166;2023-04-16T04:23:18;8.10;1.00
6496;DHT22;3281;47.658;9.166;2023-04-16T04:25:44;8.10;1.00
6496;DHT22;3281;47.658;9.166;2023-04-16T04:28:11;8.10;1.00
6496;DHT22;3281;47.658;9.166;2023-04-16T04:30:39;8.20;1.00
6496;DHT22;3281;47.658;9.166;2023-04-16T04:33:06;8.20;1.00
6496;DHT22;3281;47.658;9.166;2023-04-16T04:35:33;8.10;1.00
6496;DHT22;3281;47.658;9.166;2023-04-16T04:38:00;8.10;1.00
6496;DHT22;3281;47.658;9.166;2023-04-16T04:40:27;8.20;1.00
6496;DHT22;3281;47.658;9.166;2023-04-16T04:42:53;8.30;1.00
6496;DHT22;3281;47.658;9.166;2023-04-16T04:45:20;8.30;1.00
6496;DHT22;3281;47.658;9.166;2023-04-16T04:47:51;8.20;1.00
6496;DHT22;3281;47.658;9.166;2023-04-16T04:50:17;8.10;1.00
6496;DHT22;3281;47.658;9.166;2023-04-16T04:52:44;8.10;1.00
6496;DHT22;3281;47.658;9.166;2023-04-16T04:55:11;8.00;1.00
6496;DHT22;3281;47.658;9.166;2023-04-16T04:57:40;8.10;1.00
6496;DHT22;3281;47.658;9.166;2023-04-16T05:00:07;8.10;1.00
6496;DHT22;3281;47.658;9.166;2023-04-16T05:02:34;8.10;1.00
6496;DHT22;3281;47.658;9.166;2023-04-16T05:05:02;8.10;1.00
6496;DHT22;3281;47.658;9.166;2023-04-16T05:07:29;8.10;1.00
6496;DHT22;3281;47.658;9.166;2023-04-16T05:09:56;8.20;1.00
6496;DHT22;3281;47.658;9.166;2023-04-16T05:12:22;8.10;1.00
6496;DHT22;3281;47.658;9.166;2023-04-16T05:14:49;8.10;1.00
6496;DHT22;3281;47.658;9.166;2023-04-16T05:17:16;8.30;1.00
6496;DHT22;3281;47.658;9.166;2023-04-16T05:19:42;8.20;1.00
6496;DHT22;3281;47.658;9.166;2023-04-16T05:22:11;8.20;1.00
6496;DHT22;3281;47.658;9.166;2023-04-16T05:24:38;8.20;1.00
6496;DHT22;3281;47.658;9.166;2023-04-16T05:27:04;8.30;1.00
6496;DHT22;3281;47.658;9.166;2023-04-16T05:29:31;8.30;1.00
6496;DHT22;3281;47.658;9.166;2023-04-16T05:31:57;8.40;1.00
6496;DHT22;3281;47.658;9.166;2023-04-16T05:34:24;8.30;1.00
6496;DHT22;3281;47.658;9.166;2023-04-16T05:36:51;8.40;1.00
6496;DHT22;3281;47.658;9.166;2023-04-16T05:39:19;8.30;1.00
6496;DHT22;3281;47.658;9.166;2023-04-16T05:41:46;8.30;1.00
6496;DHT22;3281;47.658;9.166;2023-04-16T05:44:12;8.40;1.00
6496;DHT22;3281;47.658;9.166;2023-04-16T05:46:40;8.30;1.00
6496;DHT22;3281;47.658;9.166;2023-04-16T05:49:06;8.30;1.00
6496;DHT22;3281;47.658;9.166;2023-04-16T05:51:33;8.30;1.00
6496;DHT22;3281;47.658;9.166;2023-04-16T05:54:00;8.30;1.00
6496;DHT22;3281;47.658;9.166;2023-04-16T05:56:28;8.20;1.00
6496;DHT22;3281;47.658;9.166;2023-04-16T05:58:54;8.20;1.00
6496;DHT22;3281;47.658;9.166;2023-04-16T06:01:21;8.20;1.00
6496;DHT22;3281;47.658;9.166;2023-04-16T06:03:48;8.30;1.00
6496;DHT22;3281;47.658;9.166;2023-04-16T06:06:15;8.30;1.00
6496;DHT22;3281;47.658;9.166;2023-04-16T06:08:41;8.30;1.00
6496;DHT22;3281;47.658;9.166;2023-04-16T06:11:08;8.30;1.00
6496;DHT22;3281;47.658;9.166;2023-04-16T06:13:37;8.50;1.00
6496;DHT22;3281;47.658;9.166;2023-04-16T06:16:04;8.40;1.00
6496;DHT22;3281;47.658;9.166;2023-04-16T06:18:31;8.40;1.00
6496;DHT22;3281;47.658;9.166;2023-04-16T06:20:58;8.40;1.00
6496;DHT22;3281;47.658;9.166;2023-04-16T06:23:25;8.40;1.00
6496;DHT22;3281;47.658;9.166;2023-04-16T06:25:52;8.40;1.00
6496;DHT22;3281;47.658;9.166;2023-04-16T06:28:18;8.50;1.00
6496;DHT22;3281;47.658;9.166;2023-04-16T06:30:47;8.60;1.00
6496;DHT22;3281;47.658;9.166;2023-04-16T06:33:13;8.70;1.00
6496;DHT22;3281;47.658;9.166;2023-04-16T06:35:40;8.70;1.00
6496;DHT22;3281;47.658;9.166;2023-04-16T06:38:07;8.80;1.00
6496;DHT22;3281;47.658;9.166;2023-04-16T06:40:34;8.70;1.00
6496;DHT22;3281;47.658;9.166;2023-04-16T06:43:01;8.80;1.00
6496;DHT22;3281;47.658;9.166;2023-04-16T06:45:28;8.80;1.00
6496;DHT22;3281;47.658;9.166;2023-04-16T06:47:56;8.70;1.00
6496;DHT22;3281;47.658;9.166;2023-04-16T06:50:23;8.80;1.00
6496;DHT22;3281;47.658;9.166;2023-04-16T06:52:51;8.70;1.00
6496;DHT22;3281;47.658;9.166;2023-04-16T06:55:18;8.60;1.00
6496;DHT22;3281;47.658;9.166;2023-04-16T06:57:44;8.60;1.00
6496;DHT22;3281;47.658;9.166;2023-04-16T07:00:12;8.60;1.00
6496;DHT22;3281;47.658;9.166;2023-04-16T07:02:38;8.60;1.00
6496;DHT22;3281;47.658;9.166;2023-04-16T07:05:07;8.70;1.00
6496;DHT22;3281;47.658;9.166;2023-04-16T07:07:34;8.70;1.00
6496;DHT22;3281;47.658;9.166;2023-04-16T07:10:01;8.70;1.00
6496;DHT22;3281;47.658;9.166;2023-04-16T07:12:27;8.80;1.00
6496;DHT22;3281;47.658;9.166;2023-04-16T07:14:54;8.80;1.00
6496;DHT22;3281;47.658;9.166;2023-04-16T07:17:22;8.80;1.00
6496;DHT22;3281;47.658;9.166;2023-04-16T07:19:50;8.90;1.00
6496;DHT22;3281;47.658;9.166;2023-04-16T07:22:18;8.90;1.00
6496;DHT22;3281;47.658;9.166;2023-04-16T07:24:45;8.90;1.00
6496;DHT22;3281;47.658;9.166;2023-04-16T07:27:11;8.90;1.00
6496;DHT22;3281;47.658;9.166;2023-04-16T07:29:38;8.90;1.00
6496;DHT22;3281;47.658;9.166;2023-04-16T07:32:05;8.90;1.00
6496;DHT22;3281;47.658;9.166;2023-04-16T07:34:32;8.90;1.00
6496;DHT22;3281;47.658;9.166;2023-04-16T07:36:59;8.90;1.00
6496;DHT22;3281;47.658;9.166;2023-04-16T07:39:30;9.00;1.00
6496;DHT22;3281;47.658;9.166;2023-04-16T07:41:57;8.80;1.00
6496;DHT22;3281;47.658;9.166;2023-04-16T07:44:23;8.80;1.00
6496;DHT22;3281;47.658;9.166;2023-04-16T07:46:51;8.80;1.00
6496;DHT22;3281;47.658;9.166;2023-04-16T07:49:17;8.70;1.00
6496;DHT22;3281;47.658;9.166;2023-04-16T07:51:44;8.80;1.00
6496;DHT22;3281;47.658;9.166;2023-04-16T07:54:11;8.80;1.00
6496;DHT22;3281;47.658;9.166;2023-04-16T07:56:39;8.80;1.00
6496;DHT22;3281;47.658;9.166;2023-04-16T07:59:05;8.90;1.00
6496;DHT22;3281;47.658;9.166;2023-04-16T08:01:32;8.90;1.00
6496;DHT22;3281;47.658;9.166;2023-04-16T08:03:59;9.00;1.00
6496;DHT22;3281;47.658;9.166;2023-04-16T08:06:25;9.00;1.00
6496;DHT22;3281;47.658;9.166;2023-04-16T08:08:52;9.00;1.00
6496;DHT22;3281;47.658;9.166;2023-04-16T08:11:19;9.10;1.00
6496;DHT22;3281;47.658;9.166;2023-04-16T08:13:47;9.00;1.00
6496;DHT22;3281;47.658;9.166;2023-04-16T08:16:13;9.00;1.00
6496;DHT22;3281;47.658;9.166;2023-04-16T08:18:40;9.00;1.00
6496;DHT22;3281;47.658;9.166;2023-04-16T08:21:07;9.10;1.00
6496;DHT22;3281;47.658;9.166;2023-04-16T08:23:34;9.20;1.00
6496;DHT22;3281;47.658;9.166;2023-04-16T08:26:01;9.30;1.00
6496;DHT22;3281;47.658;9.166;2023-04-16T08:28:28;9.10;1.00
6496;DHT22;3281;47.658;9.166;2023-04-16T08:30:56;9.20;1.00
6496;DHT22;3281;47.658;9.166;2023-04-16T08:33:23;9.20;1.00
6496;DHT22;3281;47.658;9.166;2023-04-16T08:35:49;9.20;1.00
6496;DHT22;3281;47.658;9.166;2023-04-16T08:38:16;9.10;1.00
6496;DHT22;3281;47.658;9.166;2023-04-16T08:40:43;9.10;1.00
6496;DHT22;3281;47.658;9.166;2023-04-16T08:43:12;9.10;1.00
6496;DHT22;3281;47.658;9.166;2023-04-16T08:45:40;9.20;1.00
6496;DHT22;3281;47.658;9.166;2023-04-16T08:48:10;9.10;1.00
6496;DHT22;3281;47.658;9.166;2023-04-16T08:50:37;9.00;1.00
6496;DHT22;3281;47.658;9.166;2023-04-16T08:53:06;9.10;1.00
6496;DHT22;3281;47.658;9.166;2023-04-16T08:55:37;9.10;1.00
6496;DHT22;3281;47.658;9.166;2023-04-16T08:58:08;9.00;1.00
6496;DHT22;3281;47.658;9.166;2023-04-16T09:00:39;9.10;1.00
6496;DHT22;3281;47.658;9.166;2023-04-16T09:03:06;9.20;1.00
6496;DHT22;3281;47.658;9.166;2023-04-16T09:05:35;9.30;1.00
6496;DHT22;3281;47.658;9.166;2023-04-16T09:08:02;9.30;1.00
6496;DHT22;3281;47.658;9.166;2023-04-16T09:10:30;9.30;1.00
6496;DHT22;3281;47.658;9.166;2023-04-16T09:12:57;9.20;1.00
6496;DHT22;3281;47.658;9.166;2023-04-16T09:15:24;9.20;1.00
6496;DHT22;3281;47.658;9.166;2023-04-16T09:17:51;9.30;1.00
6496;DHT22;3281;47.658;9.166;2023-04-16T09:20:18;9.40;1.00
6496;DHT22;3281;47.658;9.166;2023-04-16T09:22:47;9.40;1.00
6496;DHT22;3281;47.658;9.166;2023-04-16T09:25:14;9.40;1.00
6496;DHT22;3281;47.658;9.166;2023-04-16T09:27:40;9.40;1.00
6496;DHT22;3281;47.658;9.166;2023-04-16T09:30:21;9.40;1.00
6496;DHT22;3281;47.658;9.166;2023-04-16T09:32:49;9.50;1.00
6496;DHT22;3281;47.658;9.166;2023-04-16T09:35:17;9.40;1.00
6496;DHT22;3281;47.658;9.166;2023-04-16T09:37:55;9.50;1.00
6496;DHT22;3281;47.658;9.166;2023-04-16T09:40:26;9.50;1.00
6496;DHT22;3281;47.658;9.166;2023-04-16T09:42:56;9.50;1.00
6496;DHT22;3281;47.658;9.166;2023-04-16T09:45:23;9.50;1.00
6496;DHT22;3281;47.658;9.166;2023-04-16T09:47:50;9.50;1.00
6496;DHT22;3281;47.658;9.166;2023-04-16T09:50:18;9.50;1.00
6496;DHT22;3281;47.658;9.166;2023-04-16T09:52:47;9.40;1.00
6496;DHT22;3281;47.658;9.166;2023-04-16T09:55:15;9.40;1.00
6496;DHT22;3281;47.658;9.166;2023-04-16T09:57:43;9.40;1.00
6496;DHT22;3281;47.658;9.166;2023-04-16T10:00:12;9.40;1.00
6496;DHT22;3281;47.658;9.166;2023-04-16T10:02:39;9.40;1.00
6496;DHT22;3281;47.658;9.166;2023-04-16T10:05:06;9.50;1.00
6496;DHT22;3281;47.658;9.166;2023-04-16T10:07:34;9.60;1.00
6496;DHT22;3281;47.658;9.166;2023-04-16T10:10:02;9.60;1.00
6496;DHT22;3281;47.658;9.166;2023-04-16T10:12:30;9.70;1.00
6496;DHT22;3281;47.658;9.166;2023-04-16T10:14:57;9.60;1.00
6496;DHT22;3281;47.658;9.166;2023-04-16T10:17:25;9.60;1.00
6496;DHT22;3281;47.658;9.166;2023-04-16T10:19:54;9.60;1.00
6496;DHT22;3281;47.658;9.166;2023-04-16T10:22:21;9.50;1.00
6496;DHT22;3281;47.658;9.166;2023-04-16T10:24:49;9.60;1.00
6496;DHT22;3281;47.658;9.166;2023-04-16T10:27:16;9.70;1.00
6496;DHT22;3281;47.658;9.166;2023-04-16T10:29:45;9.70;1.00
6496;DHT22;3281;47.658;9.166;2023-04-16T10:32:13;9.70;1.00
6496;DHT22;3281;47.658;9.166;2023-04-16T10:34:40;9.70;1.00
6496;DHT22;3281;47.658;9.166;2023-04-16T10:37:07;9.60;1.00
6496;DHT22;3281;47.658;9.166;2023-04-16T10:39:34;9.60;1.00
6496;DHT22;3281;47.658;9.166;2023-04-16T10:42:07;9.70;1.00
6496;DHT22;3281;47.658;9.166;2023-04-16T10:44:34;9.80;1.00
6496;DHT22;3281;47.658;9.166;2023-04-16T10:47:02;9.70;1.00
6496;DHT22;3281;47.658;9.166;2023-04-16T10:49:35;9.60;1.00
6496;DHT22;3281;47.658;9.166;2023-04-16T10:52:09;9.60;1.00
6496;DHT22;3281;47.658;9.166;2023-04-16T10:54:37;9.50;1.00
6496;DHT22;3281;47.658;9.166;2023-04-16T10:57:04;9.60;1.00
6496;DHT22;3281;47.658;9.166;2023-04-16T10:59:33;9.70;1.00
6496;DHT22;3281;47.658;9.166;2023-04-16T11:02:06;9.70;1.00
6496;DHT22;3281;47.658;9.166;2023-04-16T11:04:34;9.60;1.00
6496;DHT22;3281;47.658;9.166;2023-04-16T11:07:06;9.70;1.00
6496;DHT22;3281;47.658;9.166;2023-04-16T11:09:53;9.60;1.00
6496;DHT22;3281;47.658;9.166;2023-04-16T11:12:21;9.60;1.00
6496;DHT22;3281;47.658;9.166;2023-04-16T11:14:50;9.70;1.00
6496;DHT22;3281;47.658;9.166;2023-04-16T11:17:20;9.70;1.00
6496;DHT22;3281;47.658;9.166;2023-04-16T11:19:47;9.80;1.00
6496;DHT22;3281;47.658;9.166;2023-04-16T11:22:15;9.80;1.00
6496;DHT22;3281;47.658;9.166;2023-04-16T11:24:43;9.80;1.00
6496;DHT22;3281;47.658;9.166;2023-04-16T11:27:12;9.80;1.00
6496;DHT22;3281;47.658;9.166;2023-04-16T11:29:39;9.70;1.00
6496;DHT22;3281;47.658;9.166;2023-04-16T11:32:06;9.90;1.00
6496;DHT22;3281;47.658;9.166;2023-04-16T11:34:42;9.80;1.00
6496;DHT22;3281;47.658;9.166;2023-04-16T11:37:10;9.90;1.00
6496;DHT22;3281;47.658;9.166;2023-04-16T11:39:50;9.80;1.00
6496;DHT22;3281;47.658;9.166;2023-04-16T11:42:20;9.80;1.00
6496;DHT22;3281;47.658;9.166;2023-04-16T11:44:51;9.80;1.00
6496;DHT22;3281;47.658;9.166;2023-04-16T11:47:19;9.70;1.00
6496;DHT22;3281;47.658;9.166;2023-04-16T11:49:47;9.80;1.00
6496;DHT22;3281;47.658;9.166;2023-04-16T11:52:23;9.70;1.00
6496;DHT22;3281;47.658;9.166;2023-04-16T11:54:51;9.90;1.00
6496;DHT22;3281;47.658;9.166;2023-04-16T11:57:23;9.90;1.00
6496;DHT22;3281;47.658;9.166;2023-04-16T11:59:50;9.90;1.00
6496;DHT22;3281;47.658;9.166;2023-04-16T12:02:17;9.90;1.00
6496;DHT22;3281;47.658;9.166;2023-04-16T12:04:43;10.10;1.00
6496;DHT22;3281;47.658;9.166;2023-04-16T12:07:12;10.20;1.00
6496;DHT22;3281;47.658;9.166;2023-04-16T12:09:40;10.50;1.00
6496;DHT22;3281;47.658;9.166;2023-04-16T12:12:25;10.60;1.00
6496;DHT22;3281;47.658;9.166;2023-04-16T12:14:53;10.70;1.00
6496;DHT22;3281;47.658;9.166;2023-04-16T12:17:21;10.50;1.00
6496;DHT22;3281;47.658;9.166;2023-04-16T12:19:49;10.40;1.00
6496;DHT22;3281;47.658;9.166;2023-04-16T12:22:24;10.40;1.00
6496;DHT22;3281;47.658;9.166;2023-04-16T12:24:55;10.30;1.00
6496;DHT22;3281;47.658;9.166;2023-04-16T12:27:22;10.40;1.00
6496;DHT22;3281;47.658;9.166;2023-04-16T12:30:05;10.20;1.00
6496;DHT22;3281;47.658;9.166;2023-04-16T12:32:32;10.20;1.00
6496;DHT22;3281;47.658;9.166;2023-04-16T12:34:59;10.30;1.00
6496;DHT22;3281;47.658;9.166;2023-04-16T12:37:27;10.10;1.00
6496;DHT22;3281;47.658;9.166;2023-04-16T12:39:54;10.20;1.00
6496;DHT22;3281;47.658;9.166;2023-04-16T12:42:21;10.00;1.00
6496;DHT22;3281;47.658;9.166;2023-04-16T12:44:47;10.00;1.00
6496;DHT22;3281;47.658;9.166;2023-04-16T12:47:14;10.00;1.00
6496;DHT22;3281;47.658;9.166;2023-04-16T12:49:41;10.00;1.00
6496;DHT22;3281;47.658;9.166;2023-04-16T12:52:08;10.00;1.00
6496;DHT22;3281;47.658;9.166;2023-04-16T12:54:37;10.10;1.00
6496;DHT22;3281;47.658;9.166;2023-04-16T12:57:04;10.20;1.00
6496;DHT22;3281;47.658;9.166;2023-04-16T12:59:30;10.50;1.00
6496;DHT22;3281;47.658;9.166;2023-04-16T13:01:59;10.60;1.00
6496;DHT22;3281;47.658;9.166;2023-04-16T13:04:25;10.40;1.00
6496;DHT22;3281;47.658;9.166;2023-04-16T13:06:52;10.50;1.00
6496;DHT22;3281;47.658;9.166;2023-04-16T13:09:19;10.60;1.00
6496;DHT22;3281;47.658;9.166;2023-04-16T13:11:47;10.70;1.00
6496;DHT22;3281;47.658;9.166;2023-04-16T13:14:13;10.80;1.00
6496;DHT22;3281;47.658;9.166;2023-04-16T13:16:40;10.80;1.00
6496;DHT22;3281;47.658;9.166;2023-04-16T13:19:07;10.80;1.00
6496;DHT22;3281;47.658;9.166;2023-04-16T13:21:33;10.70;1.00
6496;DHT22;3281;47.658;9.166;2023-04-16T13:24:00;10.50;1.00
6496;DHT22;3281;47.658;9.166;2023-04-16T13:26:27;10.30;1.00
6496;DHT22;3281;47.658;9.166;2023-04-16T13:28:55;10.10;1.00
6496;DHT22;3281;47.658;9.166;2023-04-16T13:31:21;10.20;1.00
6496;DHT22;3281;47.658;9.166;2023-04-16T13:33:49;10.30;1.00
6496;DHT22;3281;47.658;9.166;2023-04-16T13:36:16;10.50;1.00
6496;DHT22;3281;47.658;9.166;2023-04-16T13:38:42;10.60;1.00
6496;DHT22;3281;47.658;9.166;2023-04-16T13:41:10;10.90;1.00
6496;DHT22;3281;47.658;9.166;2023-04-16T13:43:36;11.20;1.00
6496;DHT22;3281;47.658;9.166;2023-04-16T13:46:04;11.50;1.00
6496;DHT22;3281;47.658;9.166;2023-04-16T13:48:31;11.70;1.00
6496;DHT22;3281;47.658;9.166;2023-04-16T13:50:58;11.60;1.00
6496;DHT22;3281;47.658;9.166;2023-04-16T13:53:24;11.40;1.00
6496;DHT22;3281;47.658;9.166;2023-04-16T13:55:51;11.40;1.00
6496;DHT22;3281;47.658;9.166;2023-04-16T13:58:18;11.30;1.00
6496;DHT22;3281;47.658;9.166;2023-04-16T14:00:45;11.30;1.00
6496;DHT22;3281;47.658;9.166;2023-04-16T14:03:13;11.30;1.00
6496;DHT22;3281;47.658;9.166;2023-04-16T14:05:40;11.30;1.00
6496;DHT22;3281;47.658;9.166;2023-04-16T14:08:07;11.20;1.00
6496;DHT22;3281;47.658;9.166;2023-04-16T14:10:34;11.10;1.00
6496;DHT22;3281;47.658;9.166;2023-04-16T14:13:01;11.00;1.00
6496;DHT22;3281;47.658;9.166;2023-04-16T14:15:27;10.80;1.00
6496;DHT22;3281;47.658;9.166;2023-04-16T14:17:54;10.80;1.00
6496;DHT22;3281;47.658;9.166;2023-04-16T14:20:22;10.70;1.00
6496;DHT22;3281;47.658;9.166;2023-04-16T14:22:49;10.80;1.00
6496;DHT22;3281;47.658;9.166;2023-04-16T14:25:16;10.70;1.00
6496;DHT22;3281;47.658;9.166;2023-04-16T14:27:42;10.70;1.00
6496;DHT22;3281;47.658;9.166;2023-04-16T14:30:10;10.60;1.00
6496;DHT22;3281;47.658;9.166;2023-04-16T14:32:36;10.70;1.00
6496;DHT22;3281;47.658;9.166;2023-04-16T14:35:04;10.70;1.00
6496;DHT22;3281;47.658;9.166;2023-04-16T14:37:32;10.80;1.00
6496;DHT22;3281;47.658;9.166;2023-04-16T14:40:00;10.80;1.00
6496;DHT22;3281;47.658;9.166;2023-04-16T14:42:27;10.90;1.00
6496;DHT22;3281;47.658;9.166;2023-04-16T14:44:53;10.90;1.00
6496;DHT22;3281;47.658;9.166;2023-04-16T14:47:20;10.90;1.00
6496;DHT22;3281;47.658;9.166;2023-04-16T14:49:47;10.90;1.00
6496;DHT22;3281;47.658;9.166;2023-04-16T14:52:13;10.90;1.00
6496;DHT22;3281;47.658;9.166;2023-04-16T14:54:41;10.90;1.00
6496;DHT22;3281;47.658;9.166;2023-04-16T14:57:08;10.90;1.00
6496;DHT22;3281;47.658;9.166;2023-04-16T14:59:35;11.00;1.00
6496;DHT22;3281;47.658;9.166;2023-04-16T15:02:02;10.80;1.00
6496;DHT22;3281;47.658;9.166;2023-04-16T15:04:29;10.80;1.00
6496;DHT22;3281;47.658;9.166;2023-04-16T15:06:55;10.80;1.00
6496;DHT22;3281;47.658;9.166;2023-04-16T15:09:24;10.70;1.00
6496;DHT22;3281;47.658;9.166;2023-04-16T15:11:52;10.60;1.00
6496;DHT22;3281;47.658;9.166;2023-04-16T15:14:19;10.60;1.00
6496;DHT22;3281;47.658;9.166;2023-04-16T15:16:46;10.50;1.00
6496;DHT22;3281;47.658;9.166;2023-04-16T15:19:13;10.50;1.00
6496;DHT22;3281;47.658;9.166;2023-04-16T15:21:40;10.50;1.00
6496;DHT22;3281;47.658;9.166;2023-04-16T15:24:07;10.50;1.00
6496;DHT22;3281;47.658;9.166;2023-04-16T15:26:33;10.40;1.00
6496;DHT22;3281;47.658;9.166;2023-04-16T15:29:01;10.40;1.00
6496;DHT22;3281;47.658;9.166;2023-04-16T15:31:28;10.40;1.00
6496;DHT22;3281;47.658;9.166;2023-04-16T15:33:55;10.40;1.00
6496;DHT22;3281;47.658;9.166;2023-04-16T15:36:23;10.40;1.00
6496;DHT22;3281;47.658;9.166;2023-04-16T15:38:51;10.40;1.00
6496;DHT22;3281;47.658;9.166;2023-04-16T15:41:17;10.40;1.00
6496;DHT22;3281;47.658;9.166;2023-04-16T15:43:44;10.40;1.00
6496;DHT22;3281;47.658;9.166;2023-04-16T15:46:12;10.40;1.00
6496;DHT22;3281;47.658;9.166;2023-04-16T15:48:39;10.30;1.00
6496;DHT22;3281;47.658;9.166;2023-04-16T15:51:06;10.30;1.00
6496;DHT22;3281;47.658;9.166;2023-04-16T15:53:33;10.20;1.00
6496;DHT22;3281;47.658;9.166;2023-04-16T15:56:00;10.20;1.00
6496;DHT22;3281;47.658;9.166;2023-04-16T15:58:26;10.20;1.00
6496;DHT22;3281;47.658;9.166;2023-04-16T16:00:53;10.20;1.00
6496;DHT22;3281;47.658;9.166;2023-04-16T16:03:21;10.20;1.00
6496;DHT22;3281;47.658;9.166;2023-04-16T16:05:48;10.20;1.00
6496;DHT22;3281;47.658;9.166;2023-04-16T16:08:15;10.20;1.00
6496;DHT22;3281;47.658;9.166;2023-04-16T16:10:41;10.10;1.00
6496;DHT22;3281;47.658;9.166;2023-04-16T16:13:08;10.10;1.00
6496;DHT22;3281;47.658;9.166;2023-04-16T16:15:38;10.00;1.00
6496;DHT22;3281;47.658;9.166;2023-04-16T16:18:05;9.90;1.00
6496;DHT22;3281;47.658;9.166;2023-04-16T16:20:33;9.90;1.00
6496;DHT22;3281;47.658;9.166;2023-04-16T16:23:01;10.00;1.00
6496;DHT22;3281;47.658;9.166;2023-04-16T16:25:27;9.90;1.00
6496;DHT22;3281;47.658;9.166;2023-04-16T16:27:54;9.90;1.00
6496;DHT22;3281;47.658;9.166;2023-04-16T16:30:21;9.80;1.00